createdAt,value
2022-09-12T00:00:15.764Z,5.30
2022-09-12T00:02:42.593Z,5.47
2022-09-12T00:05:09.415Z,5.53
2022-09-12T00:07:36.211Z,5.20
2022-09-12T00:10:03.744Z,5.70
2022-09-12T00:12:30.488Z,5.60
2022-09-12T00:14:57.249Z,5.27
2022-09-12T00:17:24.030Z,4.53
2022-09-12T00:19:50.834Z,4.77
2022-09-12T00:22:17.577Z,5.10
2022-09-12T00:24:44.448Z,4.80
2022-09-12T00:27:11.228Z,5.00
2022-09-12T00:29:38.374Z,4.93
2022-09-12T00:32:05.165Z,5.70
2022-09-12T00:34:31.853Z,5.63
2022-09-12T00:36:58.624Z,4.97
2022-09-12T00:39:25.491Z,5.30
2022-09-12T00:41:52.410Z,5.17
2022-09-12T00:44:22.375Z,5.33
2022-09-12T00:46:55.147Z,5.20
2022-09-12T00:49:29.679Z,5.50
2022-09-12T00:52:07.212Z,5.90
2022-09-12T00:55:00.097Z,5.80
2022-09-12T00:57:32.878Z,5.60
2022-09-12T01:00:14.500Z,5.33
2022-09-12T01:02:46.519Z,5.10
2022-09-12T01:05:13.910Z,5.40
2022-09-12T01:07:41.669Z,4.60
2022-09-12T01:10:09.872Z,5.30
2022-09-12T01:12:40.618Z,4.40
2022-09-12T01:15:08.580Z,4.80
2022-09-12T01:17:43.111Z,4.27
2022-09-12T01:20:47.726Z,4.20
2022-09-12T01:23:48.466Z,4.40
2022-09-12T01:26:36.734Z,4.07
2022-09-12T01:29:35.374Z,5.00
2022-09-12T01:32:29.373Z,4.80
2022-09-12T01:35:04.672Z,4.73
2022-09-12T01:37:58.035Z,5.17
2022-09-12T01:40:33.694Z,4.23
2022-09-12T01:43:12.151Z,4.87
2022-09-12T01:45:41.146Z,4.90
2022-09-12T01:48:19.676Z,5.10
2022-09-12T01:50:52.861Z,4.77
2022-09-12T01:53:26.413Z,4.83
2022-09-12T01:56:22.491Z,5.27
2022-09-12T01:58:49.299Z,5.20
2022-09-12T02:01:24.499Z,4.53
2022-09-12T02:04:03.914Z,4.40
2022-09-12T02:06:40.299Z,4.87
2022-09-12T02:09:19.691Z,5.27
2022-09-12T02:11:47.686Z,5.17
2022-09-12T02:14:25.621Z,4.60
2022-09-12T02:17:02.566Z,4.77
2022-09-12T02:19:35.781Z,5.43
2022-09-12T02:22:04.872Z,5.10
2022-09-12T02:24:39.968Z,4.90
2022-09-12T02:27:19.650Z,5.23
2022-09-12T02:29:46.685Z,5.10
2022-09-12T02:32:38.234Z,5.40
2022-09-12T02:35:22.713Z,5.43
2022-09-12T02:38:02.311Z,5.20
2022-09-12T02:40:30.540Z,5.00
2022-09-12T02:42:58.097Z,4.83
2022-09-12T02:45:25.242Z,5.07
2022-09-12T02:48:20.371Z,5.23
2022-09-12T02:50:47.372Z,4.60
2022-09-12T02:53:14.340Z,4.93
2022-09-12T02:55:43.106Z,4.43
2022-09-12T02:58:14.479Z,4.90
2022-09-12T03:01:03.479Z,4.33
2022-09-12T03:03:55.230Z,4.63
2022-09-12T03:06:37.379Z,4.47
2022-09-12T03:09:23.754Z,4.60
2022-09-12T03:12:11.948Z,5.13
2022-09-12T03:15:07.510Z,5.53
2022-09-12T03:17:46.621Z,5.27
2022-09-12T03:20:44.512Z,5.23
2022-09-12T03:23:28.711Z,5.47
2022-09-12T03:26:02.301Z,5.20
2022-09-12T03:28:30.395Z,5.53
2022-09-12T03:30:58.144Z,5.50
2022-09-12T03:33:25.759Z,5.53
2022-09-12T03:35:53.473Z,5.97
2022-09-12T03:38:20.269Z,5.23
2022-09-12T03:40:50.308Z,5.47
2022-09-12T03:43:19.551Z,5.20
2022-09-12T03:45:52.230Z,4.87
2022-09-12T03:48:19.014Z,5.33
2022-09-12T03:50:45.935Z,5.20
2022-09-12T03:53:16.948Z,5.00
2022-09-12T03:55:44.098Z,5.33
2022-09-12T03:58:10.944Z,5.90
2022-09-12T04:00:39.116Z,4.97
2022-09-12T04:03:05.925Z,4.93
2022-09-12T04:05:32.661Z,4.87
2022-09-12T04:07:59.395Z,4.60
2022-09-12T04:10:26.165Z,5.00
2022-09-12T04:12:53.001Z,4.00
2022-09-12T04:15:19.825Z,4.40
2022-09-12T04:17:46.576Z,4.47
2022-09-12T04:20:13.396Z,4.60
2022-09-12T04:22:40.352Z,4.67
2022-09-12T04:25:08.055Z,4.20
2022-09-12T04:27:35.274Z,4.60
2022-09-12T04:30:02.667Z,4.70
2022-09-12T04:32:31.223Z,4.40
2022-09-12T04:34:58.193Z,4.07
2022-09-12T04:37:25.053Z,4.70
2022-09-12T04:39:56.105Z,4.80
2022-09-12T04:42:23.323Z,5.53
2022-09-12T04:44:50.241Z,5.60
2022-09-12T04:47:17.006Z,6.23
2022-09-12T04:49:43.803Z,5.20
2022-09-12T04:52:10.528Z,5.33
2022-09-12T04:54:37.966Z,5.13
2022-09-12T04:57:04.774Z,4.90
2022-09-12T04:59:31.520Z,4.90
2022-09-12T05:01:58.724Z,5.10
2022-09-12T05:04:25.524Z,5.27
2022-09-12T05:06:52.348Z,5.30
2022-09-12T05:09:19.189Z,5.57
2022-09-12T05:12:03.638Z,5.50
2022-09-12T05:14:32.677Z,6.33
2022-09-12T05:17:01.528Z,5.37
2022-09-12T05:19:30.237Z,5.17
2022-09-12T05:21:57.191Z,5.43
2022-09-12T05:24:24.760Z,5.83
2022-09-12T05:26:51.787Z,5.43
2022-09-12T05:29:18.989Z,5.20
2022-09-12T05:31:45.980Z,4.67
2022-09-12T05:34:12.792Z,4.97
2022-09-12T05:36:39.688Z,5.70
2022-09-12T05:39:06.668Z,4.87
2022-09-12T05:41:34.231Z,5.53
2022-09-12T05:44:03.957Z,5.27
2022-09-12T05:46:36.059Z,5.43
2022-09-12T05:49:08.703Z,5.50
2022-09-12T05:51:38.367Z,4.77
2022-09-12T05:54:06.606Z,5.57
2022-09-12T05:56:38.871Z,5.03
2022-09-12T05:59:10.651Z,5.13
2022-09-12T06:01:37.667Z,5.83
2022-09-12T06:04:06.617Z,5.33
2022-09-12T06:06:37.726Z,4.97
2022-09-12T06:09:05.616Z,5.80
2022-09-12T06:11:35.521Z,4.87
2022-09-12T06:14:02.396Z,5.67
2022-09-12T06:16:32.224Z,6.53
2022-09-12T06:19:01.801Z,5.60
2022-09-12T06:21:30.895Z,5.97
2022-09-12T06:23:58.960Z,6.23
2022-09-12T06:26:25.818Z,6.47
2022-09-12T06:28:54.513Z,6.83
2022-09-12T06:31:23.550Z,6.00
2022-09-12T06:33:52.145Z,6.63
2022-09-12T06:36:25.065Z,6.20
2022-09-12T06:38:57.244Z,6.80
2022-09-12T06:41:25.544Z,6.43
2022-09-12T06:43:53.348Z,6.43
2022-09-12T06:46:20.651Z,7.40
2022-09-12T06:48:48.101Z,6.17
2022-09-12T06:51:17.745Z,6.07
2022-09-12T06:53:45.871Z,6.73
2022-09-12T06:56:21.417Z,7.93
2022-09-12T06:58:49.907Z,6.83
2022-09-12T07:01:21.976Z,7.43
2022-09-12T07:03:56.845Z,7.03
2022-09-12T07:06:31.677Z,6.67
2022-09-12T07:09:00.198Z,6.90
2022-09-12T07:11:33.682Z,6.37
2022-09-12T07:14:02.281Z,7.27
2022-09-12T07:16:30.384Z,8.13
2022-09-12T07:19:02.764Z,9.83
2022-09-12T07:21:30.086Z,9.93
2022-09-12T07:24:00.383Z,13.77
2022-09-12T07:26:29.257Z,11.63
2022-09-12T07:29:08.308Z,10.10
2022-09-12T07:31:45.210Z,8.57
2022-09-12T07:34:12.242Z,8.53
2022-09-12T07:36:39.294Z,7.43
2022-09-12T07:39:06.133Z,7.43
2022-09-12T07:41:39.720Z,6.70
2022-09-12T07:44:09.207Z,6.83
2022-09-12T07:46:35.955Z,7.73
2022-09-12T07:49:03.078Z,6.60
2022-09-12T07:51:31.941Z,6.57
2022-09-12T07:53:59.327Z,5.93
2022-09-12T07:56:30.657Z,6.67
2022-09-12T07:58:59.605Z,5.60
2022-09-12T08:01:26.682Z,6.03
2022-09-12T08:03:59.022Z,5.97
2022-09-12T08:06:27.815Z,5.80
2022-09-12T08:08:56.962Z,5.87
2022-09-12T08:11:25.820Z,6.23
2022-09-12T08:13:55.880Z,5.50
2022-09-12T08:16:28.676Z,5.40
2022-09-12T08:18:56.212Z,5.20
2022-09-12T08:21:28.119Z,5.17
2022-09-12T08:24:01.040Z,4.83
2022-09-12T08:26:28.262Z,5.80
2022-09-12T08:28:55.414Z,4.70
2022-09-12T08:31:24.385Z,4.80
2022-09-12T08:33:51.836Z,4.10
2022-09-12T08:36:23.652Z,3.50
2022-09-12T08:38:59.892Z,3.60
2022-09-12T08:41:43.680Z,3.87
2022-09-12T08:44:19.807Z,3.70
2022-09-12T08:46:47.111Z,3.33
2022-09-12T08:49:22.976Z,3.30
2022-09-12T08:51:50.296Z,3.40
2022-09-12T08:54:26.933Z,3.20
2022-09-12T08:57:00.885Z,3.00
2022-09-12T08:59:57.993Z,2.80
2022-09-12T09:02:39.846Z,2.67
2022-09-12T09:05:38.862Z,3.20
2022-09-12T09:08:05.671Z,2.87
2022-09-12T09:10:53.053Z,2.83
2022-09-12T09:14:05.500Z,2.77
2022-09-12T09:16:35.062Z,2.50
2022-09-12T09:19:06.573Z,2.63
2022-09-12T09:21:41.325Z,2.80
2022-09-12T09:24:14.756Z,2.63
2022-09-12T09:26:53.871Z,2.53
2022-09-12T09:29:26.528Z,2.53
2022-09-12T09:32:00.295Z,2.10
2022-09-12T09:34:31.717Z,2.43
2022-09-12T09:37:24.564Z,2.40
2022-09-12T09:40:01.902Z,2.50
2022-09-12T09:42:51.702Z,2.57
2022-09-12T09:45:22.147Z,2.17
2022-09-12T09:47:58.881Z,2.03
2022-09-12T09:50:25.954Z,3.53
2022-09-12T09:52:54.029Z,2.60
2022-09-12T09:55:24.755Z,3.00
2022-09-12T09:57:53.168Z,2.30
2022-09-12T10:00:27.575Z,2.63
2022-09-12T10:03:13.438Z,2.60
2022-09-12T10:05:49.451Z,2.67
2022-09-12T10:08:28.685Z,2.30
2022-09-12T10:11:05.642Z,2.40
2022-09-12T10:13:51.448Z,2.07
2022-09-12T10:16:24.953Z,2.40
2022-09-12T10:18:53.421Z,2.27
2022-09-12T10:21:40.251Z,1.83
2022-09-12T10:24:13.933Z,2.07
2022-09-12T10:26:41.988Z,1.93
2022-09-12T10:29:21.998Z,1.97
2022-09-12T10:31:55.424Z,2.30
2022-09-12T10:34:31.155Z,2.00
2022-09-12T10:37:23.873Z,2.30
2022-09-12T10:39:57.228Z,2.10
2022-09-12T10:42:49.710Z,1.80
2022-09-12T10:45:35.731Z,2.20
2022-09-12T10:48:22.692Z,2.30
2022-09-12T10:50:49.463Z,1.80
2022-09-12T10:53:25.491Z,1.97
2022-09-12T10:56:04.045Z,1.90
2022-09-12T10:58:57.750Z,2.00
2022-09-12T11:01:45.262Z,2.33
2022-09-12T11:04:27.405Z,1.83
2022-09-12T11:07:15.636Z,1.80
2022-09-12T11:10:07.031Z,2.00
2022-09-12T11:13:04.715Z,2.33
2022-09-12T11:15:39.500Z,1.87
2022-09-12T11:18:56.494Z,1.73
2022-09-12T11:22:00.210Z,1.77
2022-09-12T11:25:04.324Z,1.93
2022-09-12T11:28:24.755Z,2.17
2022-09-12T11:31:24.643Z,1.87
2022-09-12T11:33:56.499Z,1.97
2022-09-12T11:36:32.495Z,2.13
2022-09-12T11:39:19.869Z,2.00
2022-09-12T11:41:59.665Z,2.10
2022-09-12T11:44:40.610Z,2.03
2022-09-12T11:47:18.628Z,2.40
2022-09-12T11:49:52.015Z,2.17
2022-09-12T11:52:29.516Z,2.00
2022-09-12T11:55:22.429Z,1.90
2022-09-12T11:57:58.456Z,1.73
2022-09-12T12:00:33.970Z,1.50
2022-09-12T12:03:27.178Z,2.00
2022-09-12T12:06:15.196Z,1.77
2022-09-12T12:08:44.503Z,1.63
2022-09-12T12:11:14.270Z,1.90
2022-09-12T12:14:04.626Z,1.30
2022-09-12T12:16:39.590Z,1.70
2022-09-12T12:19:31.860Z,1.47
2022-09-12T12:22:18.262Z,1.77
2022-09-12T12:25:21.434Z,1.83
2022-09-12T12:28:01.904Z,1.87
2022-09-12T12:30:31.728Z,1.60
2022-09-12T12:33:02.146Z,1.97
2022-09-12T12:35:46.776Z,2.13
2022-09-12T12:38:40.960Z,1.70
2022-09-12T12:41:16.391Z,1.60
2022-09-12T12:43:50.937Z,1.47
2022-09-12T12:46:22.674Z,2.00
2022-09-12T12:49:30.888Z,1.60
2022-09-12T12:52:01.609Z,1.63
2022-09-12T12:54:41.136Z,1.27
2022-09-12T12:57:47.203Z,1.40
2022-09-12T13:00:29.847Z,1.83
2022-09-12T13:03:08.728Z,1.57
2022-09-12T13:06:03.326Z,1.67
2022-09-12T13:08:33.447Z,2.23
2022-09-12T13:11:05.364Z,1.40
2022-09-12T13:13:39.115Z,1.63
2022-09-12T13:16:06.687Z,1.63
2022-09-12T13:18:49.137Z,1.23
2022-09-12T13:21:21.619Z,1.43
2022-09-12T13:24:18.824Z,1.43
2022-09-12T13:26:48.020Z,1.30
2022-09-12T13:29:17.911Z,1.30
2022-09-12T13:31:48.861Z,1.40
2022-09-12T13:34:21.021Z,1.20
2022-09-12T13:37:54.004Z,1.30
2022-09-12T13:40:56.552Z,1.30
2022-09-12T13:43:38.585Z,1.50
2022-09-12T13:46:07.450Z,1.40
2022-09-12T13:48:34.783Z,1.40
2022-09-12T13:51:02.937Z,1.40
2022-09-12T13:53:48.139Z,1.50
2022-09-12T13:56:19.762Z,1.40
2022-09-12T13:58:57.776Z,1.50
2022-09-12T14:01:37.055Z,1.50
2022-09-12T14:04:34.768Z,1.60
2022-09-12T14:07:29.844Z,1.40
2022-09-12T14:09:59.507Z,1.60
2022-09-12T14:12:39.323Z,1.50
2022-09-12T14:15:09.591Z,1.37
2022-09-12T14:17:39.460Z,1.37
2022-09-12T14:20:11.904Z,1.40
2022-09-12T14:22:39.551Z,1.27
2022-09-12T14:25:10.303Z,1.20
2022-09-12T14:27:45.794Z,1.40
2022-09-12T14:30:39.933Z,1.40
2022-09-12T14:33:12.617Z,1.47
2022-09-12T14:35:52.771Z,1.37
2022-09-12T14:38:25.710Z,1.03
2022-09-12T14:41:06.602Z,1.60
2022-09-12T14:43:47.048Z,1.20
2022-09-12T14:46:43.020Z,1.30
2022-09-12T14:49:29.043Z,1.33
2022-09-12T14:51:59.370Z,1.30
2022-09-12T14:54:32.986Z,1.70
2022-09-12T14:57:07.954Z,1.73
2022-09-12T14:59:34.839Z,1.30
2022-09-12T15:02:22.521Z,1.50
2022-09-12T15:04:52.010Z,1.60
2022-09-12T15:07:33.733Z,1.43
2022-09-12T15:10:25.466Z,1.50
2022-09-12T15:13:14.446Z,1.70
2022-09-12T15:15:49.720Z,1.30
2022-09-12T15:18:17.042Z,1.73
2022-09-12T15:20:47.573Z,1.10
2022-09-12T15:23:40.062Z,1.40
2022-09-12T15:26:09.833Z,1.30
2022-09-12T15:28:36.718Z,1.60
2022-09-12T15:31:28.898Z,1.40
2022-09-12T15:33:57.321Z,1.20
2022-09-12T15:36:24.986Z,1.53
2022-09-12T15:38:52.570Z,1.30
2022-09-12T15:41:22.093Z,1.33
2022-09-12T15:43:49.419Z,1.50
2022-09-12T15:46:17.794Z,1.57
2022-09-12T15:48:44.719Z,1.23
2022-09-12T15:51:17.470Z,1.27
2022-09-12T15:53:45.486Z,1.10
2022-09-12T15:56:12.508Z,1.53
2022-09-12T15:58:54.618Z,1.37
2022-09-12T16:01:24.572Z,1.00
2022-09-12T16:03:51.444Z,1.33
2022-09-12T16:06:18.195Z,1.57
2022-09-12T16:08:45.088Z,1.13
2022-09-12T16:11:18.757Z,1.40
2022-09-12T16:13:45.671Z,1.40
2022-09-12T16:16:12.460Z,1.30
2022-09-12T16:18:40.530Z,1.50
2022-09-12T16:21:11.458Z,1.50
2022-09-12T16:23:43.675Z,1.40
2022-09-12T16:26:10.887Z,1.70
2022-09-12T16:28:37.775Z,1.20
2022-09-12T16:31:06.721Z,1.70
2022-09-12T16:33:34.061Z,1.47
2022-09-12T16:36:03.327Z,1.53
2022-09-12T16:38:30.691Z,1.50
2022-09-12T16:41:05.785Z,1.13
2022-09-12T16:43:34.575Z,1.47
2022-09-12T16:46:03.257Z,1.50
2022-09-12T16:48:30.427Z,1.90
2022-09-12T16:51:02.043Z,1.70
2022-09-12T16:53:34.971Z,1.43
2022-09-12T16:56:02.032Z,1.40
2022-09-12T16:58:39.697Z,1.60
2022-09-12T17:01:14.599Z,1.57
2022-09-12T17:03:41.766Z,1.60
2022-09-12T17:06:12.263Z,1.50
2022-09-12T17:08:42.670Z,1.60
2022-09-12T17:11:31.706Z,1.50
2022-09-12T17:14:04.860Z,2.10
2022-09-12T17:16:37.202Z,2.20
2022-09-12T17:19:04.885Z,2.00
2022-09-12T17:21:31.886Z,2.00
2022-09-12T17:23:59.316Z,1.60
2022-09-12T17:26:26.897Z,1.70
2022-09-12T17:28:53.673Z,1.90
2022-09-12T17:31:21.381Z,1.77
2022-09-12T17:33:48.390Z,1.80
2022-09-12T17:36:17.811Z,1.80
2022-09-12T17:38:46.097Z,1.80
2022-09-12T17:41:21.556Z,1.67
2022-09-12T17:43:51.028Z,2.10
2022-09-12T17:46:19.053Z,1.90
2022-09-12T17:48:50.482Z,2.10
2022-09-12T17:51:17.585Z,1.90
2022-09-12T17:53:44.409Z,2.20
2022-09-12T17:56:11.891Z,2.10
2022-09-12T17:58:39.305Z,2.60
2022-09-12T18:01:33.153Z,3.03
2022-09-12T18:04:00.839Z,3.37
2022-09-12T18:06:30.735Z,3.10
2022-09-12T18:09:02.339Z,2.80
2022-09-12T18:11:29.893Z,2.73
2022-09-12T18:13:58.686Z,3.20
2022-09-12T18:16:26.944Z,3.30
2022-09-12T18:18:53.839Z,3.00
2022-09-12T18:21:21.119Z,3.00
2022-09-12T18:23:47.913Z,3.20
2022-09-12T18:26:14.902Z,3.37
2022-09-12T18:28:43.524Z,2.93
2022-09-12T18:31:16.705Z,3.20
2022-09-12T18:33:44.045Z,3.10
2022-09-12T18:36:13.448Z,2.67
2022-09-12T18:38:41.643Z,2.83
2022-09-12T18:41:10.906Z,2.77
2022-09-12T18:43:38.497Z,2.40
2022-09-12T18:46:16.238Z,2.80
2022-09-12T18:48:44.857Z,2.87
2022-09-12T18:51:20.605Z,2.70
2022-09-12T18:53:54.856Z,2.50
2022-09-12T18:56:23.208Z,2.60
2022-09-12T18:58:55.070Z,2.30
2022-09-12T19:01:31.047Z,2.93
2022-09-12T19:03:58.199Z,2.50
2022-09-12T19:06:27.805Z,2.83
2022-09-12T19:08:56.271Z,2.57
2022-09-12T19:11:24.476Z,3.07
2022-09-12T19:13:53.150Z,3.00
2022-09-12T19:16:26.789Z,3.30
2022-09-12T19:18:54.796Z,3.63
2022-09-12T19:21:24.714Z,3.13
2022-09-12T19:23:52.704Z,3.10
2022-09-12T19:26:20.946Z,3.20
2022-09-12T19:28:48.004Z,3.03
2022-09-12T19:31:18.820Z,3.53
2022-09-12T19:33:46.520Z,3.47
2022-09-12T19:36:34.168Z,3.13
2022-09-12T19:39:02.306Z,3.13
2022-09-12T19:41:29.393Z,2.97
2022-09-12T19:43:56.842Z,3.90
2022-09-12T19:46:25.830Z,3.00
2022-09-12T19:48:53.473Z,4.03
2022-09-12T19:51:21.547Z,3.97
2022-09-12T19:53:50.215Z,3.40
2022-09-12T19:56:17.405Z,3.20
2022-09-12T19:58:46.799Z,3.30
2022-09-12T20:01:19.703Z,3.40
2022-09-12T20:03:47.472Z,2.70
2022-09-12T20:06:16.329Z,2.80
2022-09-12T20:08:44.096Z,2.90
2022-09-12T20:11:13.479Z,3.10
2022-09-12T20:13:41.289Z,2.90
2022-09-12T20:16:20.389Z,3.03
2022-09-12T20:18:51.957Z,3.50
2022-09-12T20:21:22.076Z,3.27
2022-09-12T20:23:49.435Z,2.83
2022-09-12T20:26:16.165Z,3.20
2022-09-12T20:28:42.986Z,3.27
2022-09-12T20:31:16.794Z,3.30
2022-09-12T20:33:47.544Z,3.40
2022-09-12T20:36:19.129Z,3.70
2022-09-12T20:38:54.316Z,3.20
2022-09-12T20:41:22.116Z,3.60
2022-09-12T20:43:56.227Z,3.70
2022-09-12T20:46:24.496Z,3.47
2022-09-12T20:48:51.860Z,3.80
2022-09-12T20:51:20.040Z,2.77
2022-09-12T20:53:47.897Z,3.43
2022-09-12T20:56:15.100Z,3.37
2022-09-12T20:58:44.406Z,3.40
2022-09-12T21:01:13.701Z,3.10
2022-09-12T21:03:44.438Z,3.20
2022-09-12T21:06:16.975Z,3.40
2022-09-12T21:08:44.562Z,3.57
2022-09-12T21:11:11.534Z,3.77
2022-09-12T21:13:38.626Z,3.47
2022-09-12T21:16:11.914Z,3.67
2022-09-12T21:18:39.277Z,3.90
2022-09-12T21:21:06.292Z,3.80
2022-09-12T21:23:33.721Z,3.10
2022-09-12T21:26:01.861Z,3.33
2022-09-12T21:28:28.890Z,3.80
2022-09-12T21:30:56.061Z,3.53
2022-09-12T21:33:23.768Z,3.50
2022-09-12T21:35:50.672Z,4.20
2022-09-12T21:38:19.156Z,3.80
2022-09-12T21:40:47.619Z,3.93
2022-09-12T21:43:15.091Z,4.07
2022-09-12T21:45:42.147Z,4.17
2022-09-12T21:48:08.978Z,3.70
2022-09-12T21:50:35.764Z,3.60
2022-09-12T21:53:02.597Z,3.63
2022-09-12T21:55:29.416Z,3.77
2022-09-12T21:57:56.206Z,4.37
2022-09-12T22:00:24.030Z,4.50
2022-09-12T22:02:50.952Z,4.97
2022-09-12T22:05:21.341Z,4.63
2022-09-12T22:07:48.132Z,4.53
2022-09-12T22:10:15.328Z,4.20
2022-09-12T22:12:46.179Z,3.80
2022-09-12T22:15:39.026Z,3.97
2022-09-12T22:18:00.582Z,5.07
2022-09-12T22:20:27.446Z,3.90
2022-09-12T22:23:13.090Z,4.03
2022-09-12T22:25:40.203Z,4.03
2022-09-12T22:28:07.104Z,3.87
2022-09-12T22:30:33.954Z,5.20
2022-09-12T22:33:00.766Z,4.67
2022-09-12T22:35:27.598Z,4.90
2022-09-12T22:37:54.443Z,4.60
2022-09-12T22:40:21.259Z,4.60
2022-09-12T22:42:50.950Z,4.50
2022-09-12T22:45:18.517Z,4.57
2022-09-12T22:47:45.377Z,4.60
2022-09-12T22:50:12.102Z,4.10
2022-09-12T22:52:38.845Z,4.20
2022-09-12T22:55:05.831Z,4.30
2022-09-12T22:57:32.659Z,4.10
2022-09-12T22:59:59.536Z,4.40
2022-09-12T23:02:26.389Z,4.50
2022-09-12T23:04:53.159Z,4.37
2022-09-12T23:07:19.888Z,4.30
2022-09-12T23:09:48.110Z,3.70
2022-09-12T23:12:15.576Z,3.70
2022-09-12T23:14:42.450Z,3.40
2022-09-12T23:17:09.232Z,3.83
2022-09-12T23:19:35.987Z,3.53
2022-09-12T23:22:02.837Z,3.47
2022-09-12T23:24:29.813Z,3.53
2022-09-12T23:26:56.631Z,3.93
2022-09-12T23:29:23.448Z,3.73
2022-09-12T23:31:50.229Z,3.70
2022-09-12T23:34:17.230Z,4.20
2022-09-12T23:36:44.099Z,4.03
2022-09-12T23:39:10.945Z,4.17
2022-09-12T23:41:38.177Z,4.93
2022-09-12T23:44:05.202Z,4.40
2022-09-12T23:46:32.073Z,4.60
2022-09-12T23:48:58.989Z,5.07
2022-09-12T23:51:25.964Z,4.60
2022-09-12T23:53:52.642Z,4.47
2022-09-12T23:56:19.367Z,4.20
2022-09-12T23:58:46.107Z,4.73
